createdAt,value
2023-10-28T00:00:46.547Z,0.28
2023-10-28T00:03:13.093Z,0.13
2023-10-28T00:05:39.548Z,0.38
2023-10-28T00:08:06.540Z,0.10
2023-10-28T00:10:34.263Z,0.20
2023-10-28T00:13:00.966Z,0.30
2023-10-28T00:15:27.454Z,0.10
2023-10-28T00:17:54.026Z,0.30
2023-10-28T00:20:20.889Z,0.25
2023-10-28T00:22:47.997Z,0.20
2023-10-28T00:25:14.799Z,0.10
2023-10-28T00:27:41.788Z,0.10
2023-10-28T00:30:09.207Z,0.13
2023-10-28T00:32:36.947Z,0.13
2023-10-28T00:35:03.742Z,0.20
2023-10-28T00:37:30.267Z,0.20
2023-10-28T00:39:57.171Z,0.20
2023-10-28T00:42:23.737Z,0.35
2023-10-28T00:44:50.457Z,0.20
2023-10-28T00:47:16.999Z,0.40
2023-10-28T00:49:44.287Z,0.68
2023-10-28T00:52:11.526Z,0.10
2023-10-28T00:54:38.371Z,0.45
2023-10-28T00:57:06.410Z,0.30
2023-10-28T00:59:33.726Z,0.40
2023-10-28T01:02:00.205Z,0.43
2023-10-28T01:04:26.970Z,0.40
2023-10-28T01:06:53.574Z,0.50
2023-10-28T01:09:20.178Z,0.40
2023-10-28T01:11:48.052Z,0.45
2023-10-28T01:14:14.517Z,0.13
2023-10-28T01:16:41.904Z,0.35
2023-10-28T01:19:10.266Z,0.25
2023-10-28T01:21:36.704Z,0.65
2023-10-28T01:24:03.268Z,0.90
2023-10-28T01:26:29.893Z,0.35
2023-10-28T01:28:56.994Z,2.20
2023-10-28T01:31:23.934Z,0.68
2023-10-28T01:33:50.501Z,0.75
2023-10-28T01:36:17.969Z,0.70
2023-10-28T01:38:44.493Z,0.85
2023-10-28T01:41:14.492Z,0.50
2023-10-28T01:43:47.233Z,0.52
2023-10-28T01:46:13.925Z,0.65
2023-10-28T01:48:40.543Z,1.40
2023-10-28T01:51:07.075Z,0.73
2023-10-28T01:53:34.977Z,0.40
2023-10-28T01:56:01.516Z,0.52
2023-10-28T01:58:29.582Z,0.90
2023-10-28T02:00:56.084Z,0.80
2023-10-28T02:03:22.568Z,1.65
2023-10-28T02:05:49.429Z,0.90
2023-10-28T02:08:15.910Z,1.10
2023-10-28T02:10:42.506Z,0.63
2023-10-28T02:13:08.940Z,0.60
2023-10-28T02:15:35.409Z,0.90
2023-10-28T02:18:01.942Z,0.88
2023-10-28T02:20:29.482Z,0.57
2023-10-28T02:22:56.059Z,0.73
2023-10-28T02:25:24.832Z,0.65
2023-10-28T02:27:51.271Z,0.93
2023-10-28T02:30:17.811Z,0.88
2023-10-28T02:32:45.000Z,0.65
2023-10-28T02:35:11.583Z,1.17
2023-10-28T02:37:38.222Z,0.93
2023-10-28T02:40:06.195Z,1.08
2023-10-28T02:42:35.501Z,0.40
2023-10-28T02:45:02.050Z,1.77
2023-10-28T02:47:31.701Z,1.00
2023-10-28T02:49:58.252Z,0.93
2023-10-28T02:52:25.589Z,1.40
2023-10-28T02:54:52.066Z,1.30
2023-10-28T02:57:18.802Z,0.98
2023-10-28T02:59:46.293Z,0.50
2023-10-28T03:02:12.935Z,0.88
2023-10-28T03:04:40.208Z,1.85
2023-10-28T03:07:06.658Z,1.50
2023-10-28T03:09:33.149Z,1.30
2023-10-28T03:12:00.073Z,1.25
2023-10-28T03:14:26.608Z,0.82
2023-10-28T03:16:53.131Z,0.70
2023-10-28T03:19:19.589Z,0.73
2023-10-28T03:21:46.057Z,0.40
2023-10-28T03:24:12.534Z,1.05
2023-10-28T03:26:39.629Z,0.80
2023-10-28T03:29:07.127Z,1.08
2023-10-28T03:31:33.903Z,0.98
2023-10-28T03:34:00.736Z,0.73
2023-10-28T03:36:27.281Z,0.93
2023-10-28T03:38:53.911Z,0.98
2023-10-28T03:41:20.392Z,0.90
2023-10-28T03:43:49.356Z,0.80
2023-10-28T03:46:16.986Z,0.57
2023-10-28T03:48:46.500Z,0.95
2023-10-28T03:51:14.479Z,0.75
2023-10-28T03:53:40.902Z,1.63
2023-10-28T03:56:07.640Z,0.57
2023-10-28T03:58:34.331Z,0.70
2023-10-28T04:01:00.772Z,1.17
2023-10-28T04:03:27.206Z,0.88
2023-10-28T04:05:56.586Z,0.30
2023-10-28T04:08:23.036Z,0.30
2023-10-28T04:10:50.004Z,0.88
2023-10-28T04:13:16.500Z,0.77
2023-10-28T04:15:43.086Z,0.90
2023-10-28T04:18:09.632Z,0.80
2023-10-28T04:20:36.958Z,1.45
2023-10-28T04:23:03.941Z,1.42
2023-10-28T04:25:30.593Z,1.27
2023-10-28T04:27:57.015Z,0.95
2023-10-28T04:30:23.890Z,1.10
2023-10-28T04:32:53.191Z,0.73
2023-10-28T04:35:28.034Z,0.90
2023-10-28T04:37:55.914Z,0.93
2023-10-28T04:40:22.748Z,0.77
2023-10-28T04:42:49.229Z,0.40
2023-10-28T04:45:15.811Z,0.75
2023-10-28T04:47:42.698Z,0.60
2023-10-28T04:50:09.357Z,0.88
2023-10-28T04:52:35.899Z,0.55
2023-10-28T04:55:02.348Z,0.77
2023-10-28T04:57:28.779Z,0.90
2023-10-28T04:59:55.172Z,0.45
2023-10-28T05:02:21.915Z,0.70
2023-10-28T05:04:48.392Z,0.93
2023-10-28T05:07:14.969Z,0.50
2023-10-28T05:09:41.571Z,0.82
2023-10-28T05:12:08.209Z,0.57
2023-10-28T05:14:34.769Z,0.70
2023-10-28T05:17:01.916Z,0.93
2023-10-28T05:19:28.571Z,0.80
2023-10-28T05:21:56.020Z,1.10
2023-10-28T05:24:22.459Z,1.40
2023-10-28T05:26:49.014Z,1.70
2023-10-28T05:29:17.478Z,0.65
2023-10-28T05:31:44.109Z,0.57
2023-10-28T05:34:10.592Z,0.88
2023-10-28T05:36:37.025Z,0.75
2023-10-28T05:39:04.215Z,0.50
2023-10-28T05:41:30.625Z,0.50
2023-10-28T05:43:57.132Z,0.45
2023-10-28T05:46:24.429Z,0.50
2023-10-28T05:48:53.452Z,1.00
2023-10-28T05:51:19.909Z,0.68
2023-10-28T05:53:46.364Z,0.70
2023-10-28T05:56:13.023Z,0.47
2023-10-28T05:58:39.533Z,0.75
2023-10-28T06:01:06.339Z,1.08
2023-10-28T06:03:32.851Z,0.90
2023-10-28T06:05:59.379Z,0.70
2023-10-28T06:08:26.288Z,1.17
2023-10-28T06:10:53.015Z,0.70
2023-10-28T06:13:19.765Z,0.77
2023-10-28T06:15:47.990Z,0.68
2023-10-28T06:18:17.315Z,0.85
2023-10-28T06:20:48.093Z,0.88
2023-10-28T06:23:16.214Z,0.88
2023-10-28T06:25:42.777Z,0.60
2023-10-28T06:28:11.373Z,1.05
2023-10-28T06:30:38.660Z,1.10
2023-10-28T06:33:08.081Z,1.30
2023-10-28T06:35:34.517Z,1.58
2023-10-28T06:38:03.534Z,1.17
2023-10-28T06:40:30.114Z,0.80
2023-10-28T06:42:58.059Z,1.67
2023-10-28T06:45:24.505Z,1.98
2023-10-28T06:47:51.801Z,0.57
2023-10-28T06:50:20.896Z,0.85
2023-10-28T06:52:49.734Z,1.38
2023-10-28T06:55:16.582Z,1.38
2023-10-28T06:57:43.115Z,0.93
2023-10-28T07:00:19.534Z,1.50
2023-10-28T07:02:46.158Z,1.85
2023-10-28T07:05:12.992Z,1.45
2023-10-28T07:07:39.992Z,1.45
2023-10-28T07:10:06.880Z,1.88
2023-10-28T07:12:33.591Z,0.65
2023-10-28T07:15:00.149Z,1.20
2023-10-28T07:17:27.229Z,2.65
2023-10-28T07:19:54.323Z,1.23
2023-10-28T07:22:27.004Z,1.02
2023-10-28T07:24:55.340Z,1.85
2023-10-28T07:27:22.331Z,1.98
2023-10-28T07:29:51.458Z,1.50
2023-10-28T07:32:19.012Z,1.85
2023-10-28T07:34:45.574Z,0.77
2023-10-28T07:37:12.083Z,0.70
2023-10-28T07:39:39.938Z,1.08
2023-10-28T07:42:07.089Z,1.77
2023-10-28T07:44:33.561Z,0.65
2023-10-28T07:47:00.621Z,2.83
2023-10-28T07:49:27.137Z,0.75
2023-10-28T07:51:53.640Z,1.05
2023-10-28T07:54:20.097Z,1.10
2023-10-28T07:56:46.558Z,0.68
2023-10-28T07:59:13.142Z,1.60
2023-10-28T08:01:42.510Z,1.45
2023-10-28T08:04:09.149Z,0.52
2023-10-28T08:06:38.714Z,0.75
2023-10-28T08:09:09.935Z,0.95
2023-10-28T08:11:36.445Z,0.77
2023-10-28T08:14:04.782Z,1.00
2023-10-28T08:16:31.568Z,0.70
2023-10-28T08:18:59.587Z,1.08
2023-10-28T08:21:26.386Z,0.60
2023-10-28T08:23:52.867Z,0.70
2023-10-28T08:26:19.753Z,0.90
2023-10-28T08:28:51.722Z,0.60
2023-10-28T08:31:18.365Z,0.73
2023-10-28T08:33:44.996Z,0.50
2023-10-28T08:36:11.556Z,0.90
2023-10-28T08:38:38.202Z,0.60
2023-10-28T08:41:05.097Z,0.60
2023-10-28T08:43:35.995Z,1.73
2023-10-28T08:46:04.322Z,0.65
2023-10-28T08:48:31.676Z,1.40
2023-10-28T08:51:02.600Z,0.80
2023-10-28T08:53:31.709Z,1.02
2023-10-28T08:55:58.451Z,1.05
2023-10-28T08:58:24.902Z,1.05
2023-10-28T09:00:58.180Z,0.73
2023-10-28T09:03:26.537Z,0.70
2023-10-28T09:05:54.172Z,0.95
2023-10-28T09:08:21.181Z,0.68
2023-10-28T09:10:47.805Z,0.52
2023-10-28T09:13:14.718Z,0.88
2023-10-28T09:15:41.320Z,1.00
2023-10-28T09:18:09.245Z,0.80
2023-10-28T09:20:39.100Z,1.00
2023-10-28T09:23:05.743Z,0.80
2023-10-28T09:25:32.215Z,0.65
2023-10-28T09:27:58.733Z,0.70
2023-10-28T09:30:25.277Z,1.10
2023-10-28T09:32:54.261Z,1.05
2023-10-28T09:35:21.314Z,0.90
2023-10-28T09:37:47.799Z,0.40
2023-10-28T09:40:14.501Z,0.85
2023-10-28T09:42:44.750Z,1.17
2023-10-28T09:45:11.416Z,0.90
2023-10-28T09:47:55.122Z,0.93
2023-10-28T09:50:22.220Z,0.88
2023-10-28T09:52:49.816Z,0.95
2023-10-28T09:55:19.827Z,1.95
2023-10-28T09:57:46.376Z,1.75
2023-10-28T10:00:19.089Z,1.13
2023-10-28T10:02:52.242Z,0.90
2023-10-28T10:05:21.324Z,0.65
2023-10-28T10:07:47.944Z,0.65
2023-10-28T10:10:15.029Z,1.50
2023-10-28T10:12:42.126Z,0.70
2023-10-28T10:15:20.953Z,0.95
2023-10-28T10:18:05.531Z,1.30
2023-10-28T10:20:34.097Z,1.40
2023-10-28T10:23:03.689Z,0.70
2023-10-28T10:25:34.211Z,1.02
2023-10-28T10:28:11.371Z,0.97
2023-10-28T10:30:37.939Z,1.55
2023-10-28T10:33:05.120Z,0.88
2023-10-28T10:35:32.983Z,1.95
2023-10-28T10:38:06.670Z,1.15
2023-10-28T10:40:49.094Z,0.98
2023-10-28T10:43:19.407Z,1.02
2023-10-28T10:45:47.077Z,1.45
2023-10-28T10:48:14.309Z,1.30
2023-10-28T10:50:41.498Z,1.40
2023-10-28T10:53:08.055Z,1.35
2023-10-28T10:55:34.619Z,1.13
2023-10-28T10:58:01.200Z,0.98
2023-10-28T11:00:27.763Z,1.20
2023-10-28T11:02:58.355Z,1.33
2023-10-28T11:05:28.605Z,1.57
2023-10-28T11:07:55.077Z,0.90
2023-10-28T11:10:21.846Z,1.25
2023-10-28T11:12:48.805Z,1.45
2023-10-28T11:15:15.288Z,1.73
2023-10-28T11:17:42.456Z,1.45
2023-10-28T11:20:11.144Z,2.67
2023-10-28T11:22:38.488Z,1.00
2023-10-28T11:25:05.822Z,1.02
2023-10-28T11:27:35.061Z,1.23
2023-10-28T11:30:01.957Z,1.20
2023-10-28T11:32:29.130Z,1.27
2023-10-28T11:35:00.488Z,1.40
2023-10-28T11:37:27.019Z,1.95
2023-10-28T11:39:53.463Z,1.10
2023-10-28T11:42:21.437Z,1.20
2023-10-28T11:44:49.579Z,1.45
2023-10-28T11:47:16.277Z,1.35
2023-10-28T11:49:42.940Z,1.30
2023-10-28T11:52:12.551Z,1.13
2023-10-28T11:54:39.109Z,1.33
2023-10-28T11:57:05.594Z,1.65
2023-10-28T11:59:32.210Z,1.00
2023-10-28T12:01:59.638Z,1.05
2023-10-28T12:04:26.484Z,2.05
2023-10-28T12:06:53.205Z,0.93
2023-10-28T12:09:19.680Z,1.95
2023-10-28T12:11:47.376Z,1.05
2023-10-28T12:14:13.919Z,2.13
2023-10-28T12:16:40.400Z,1.95
2023-10-28T12:19:07.380Z,2.95
2023-10-28T12:21:35.772Z,1.17
2023-10-28T12:24:04.241Z,1.13
2023-10-28T12:26:30.742Z,1.55
2023-10-28T12:28:57.872Z,1.35
2023-10-28T12:31:24.661Z,1.00
2023-10-28T12:33:51.401Z,0.82
2023-10-28T12:36:18.283Z,1.67
2023-10-28T12:38:45.721Z,2.00
2023-10-28T12:41:13.203Z,0.73
2023-10-28T12:43:40.705Z,1.52
2023-10-28T12:46:07.520Z,1.65
2023-10-28T12:48:34.332Z,1.65
2023-10-28T12:51:00.900Z,1.13
2023-10-28T12:53:28.396Z,1.20
2023-10-28T12:55:55.196Z,0.93
2023-10-28T12:58:21.663Z,1.13
2023-10-28T13:00:48.168Z,2.08
2023-10-28T13:03:16.106Z,1.00
2023-10-28T13:05:42.913Z,0.93
2023-10-28T13:08:09.413Z,1.13
2023-10-28T13:10:35.888Z,1.50
2023-10-28T13:13:02.670Z,0.68
2023-10-28T13:15:29.134Z,1.42
2023-10-28T13:17:57.600Z,2.33
2023-10-28T13:20:24.242Z,0.77
2023-10-28T13:22:53.041Z,1.67
2023-10-28T13:25:20.141Z,0.85
2023-10-28T13:27:46.564Z,1.30
2023-10-28T13:30:13.761Z,1.20
2023-10-28T13:32:52.047Z,2.08
2023-10-28T13:35:21.668Z,1.77
2023-10-28T13:37:48.819Z,1.98
2023-10-28T13:40:15.490Z,1.92
2023-10-28T13:42:41.938Z,0.93
2023-10-28T13:45:09.151Z,1.40
2023-10-28T13:47:36.816Z,2.22
2023-10-28T13:50:06.018Z,1.40
2023-10-28T13:52:33.588Z,2.40
2023-10-28T13:55:00.040Z,1.80
2023-10-28T13:57:26.476Z,3.42
2023-10-28T13:59:56.815Z,1.92
2023-10-28T14:02:23.376Z,1.25
2023-10-28T14:04:49.897Z,3.90
2023-10-28T14:07:16.951Z,2.88
2023-10-28T14:09:44.104Z,2.92
2023-10-28T14:12:10.682Z,1.85
2023-10-28T14:14:38.861Z,1.48
2023-10-28T14:17:05.597Z,2.55
2023-10-28T14:19:32.212Z,1.30
2023-10-28T14:21:59.141Z,1.40
2023-10-28T14:24:25.966Z,1.50
2023-10-28T14:26:53.289Z,1.55
2023-10-28T14:29:19.803Z,1.60
2023-10-28T14:31:46.463Z,1.60
2023-10-28T14:34:12.891Z,1.58
2023-10-28T14:36:39.529Z,1.30
2023-10-28T14:39:05.981Z,1.73
2023-10-28T14:41:35.181Z,1.48
2023-10-28T14:44:02.775Z,1.50
2023-10-28T14:46:29.476Z,1.45
2023-10-28T14:48:55.974Z,1.63
2023-10-28T14:51:23.643Z,1.95
2023-10-28T14:53:50.169Z,1.83
2023-10-28T14:56:16.784Z,1.27
2023-10-28T14:58:43.433Z,1.27
2023-10-28T15:01:11.279Z,2.22
2023-10-28T15:03:38.514Z,1.35
2023-10-28T15:06:05.744Z,1.63
2023-10-28T15:08:32.466Z,1.42
2023-10-28T15:11:09.114Z,3.22
2023-10-28T15:13:35.749Z,1.88
2023-10-28T15:16:03.990Z,1.77
2023-10-28T15:18:30.845Z,1.30
2023-10-28T15:20:57.351Z,2.10
2023-10-28T15:23:24.627Z,2.78
2023-10-28T15:25:51.133Z,4.63
2023-10-28T15:28:17.709Z,4.70
2023-10-28T15:30:44.286Z,5.68
2023-10-28T15:33:14.351Z,6.53
2023-10-28T15:35:42.367Z,2.85
2023-10-28T15:38:08.949Z,3.88
2023-10-28T15:40:38.050Z,2.95
2023-10-28T15:43:04.499Z,1.98
2023-10-28T15:45:30.981Z,3.58
2023-10-28T15:47:57.495Z,3.42
2023-10-28T15:50:24.076Z,3.42
2023-10-28T15:52:50.636Z,2.75
2023-10-28T15:55:17.118Z,2.45
2023-10-28T15:57:43.994Z,1.88
2023-10-28T16:00:10.833Z,2.13
2023-10-28T16:02:37.584Z,3.53
2023-10-28T16:05:04.371Z,3.10
2023-10-28T16:07:30.817Z,2.63
2023-10-28T16:09:58.852Z,2.38
2023-10-28T16:12:25.593Z,2.38
2023-10-28T16:14:52.229Z,2.45
2023-10-28T16:17:19.826Z,1.98
2023-10-28T16:19:50.897Z,2.42
2023-10-28T16:22:17.602Z,2.17
2023-10-28T16:24:44.241Z,2.40
2023-10-28T16:27:10.674Z,2.58
2023-10-28T16:29:37.288Z,2.63
2023-10-28T16:32:04.541Z,2.88
2023-10-28T16:34:31.867Z,1.90
2023-10-28T16:36:58.449Z,2.50
2023-10-28T16:39:25.796Z,2.17
2023-10-28T16:41:53.155Z,2.88
2023-10-28T16:44:20.381Z,3.30
2023-10-28T16:46:47.534Z,3.22
2023-10-28T16:49:14.290Z,2.35
2023-10-28T16:51:41.099Z,3.10
2023-10-28T16:54:07.886Z,2.95
2023-10-28T16:56:35.631Z,3.78
2023-10-28T16:59:02.888Z,3.67
2023-10-28T17:01:30.015Z,4.00
2023-10-28T17:04:01.662Z,3.08
2023-10-28T17:06:30.440Z,3.08
2023-10-28T17:08:57.147Z,4.32
2023-10-28T17:11:28.810Z,3.72
2023-10-28T17:13:55.601Z,3.90
2023-10-28T17:16:22.840Z,3.55
2023-10-28T17:18:49.554Z,4.60
2023-10-28T17:21:16.498Z,3.67
2023-10-28T17:23:42.968Z,5.22
2023-10-28T17:26:09.577Z,4.97
2023-10-28T17:28:36.381Z,4.35
2023-10-28T17:31:05.781Z,3.47
2023-10-28T17:33:32.783Z,2.72
2023-10-28T17:36:02.295Z,2.28
2023-10-28T17:38:30.507Z,2.42
2023-10-28T17:41:13.353Z,3.00
2023-10-28T17:43:40.497Z,3.00
2023-10-28T17:46:07.020Z,2.80
2023-10-28T17:48:34.151Z,2.50
2023-10-28T17:51:06.223Z,2.25
2023-10-28T17:53:33.334Z,3.03
2023-10-28T17:55:59.785Z,2.83
2023-10-28T17:58:26.313Z,3.60
2023-10-28T18:00:52.773Z,3.33
2023-10-28T18:03:21.712Z,2.42
2023-10-28T18:05:48.242Z,2.55
2023-10-28T18:08:15.141Z,2.80
2023-10-28T18:10:41.669Z,2.50
2023-10-28T18:13:09.010Z,3.22
2023-10-28T18:15:35.457Z,3.60
2023-10-28T18:18:02.385Z,3.03
2023-10-28T18:20:28.899Z,2.00
2023-10-28T18:22:55.517Z,2.38
2023-10-28T18:25:21.986Z,2.22
2023-10-28T18:27:48.396Z,2.13
2023-10-28T18:30:15.295Z,2.10
2023-10-28T18:32:41.886Z,1.65
2023-10-28T18:35:08.946Z,2.00
2023-10-28T18:37:35.439Z,2.10
2023-10-28T18:40:01.908Z,2.20
2023-10-28T18:42:28.416Z,1.48
2023-10-28T18:44:54.866Z,1.70
2023-10-28T18:47:21.572Z,1.40
2023-10-28T18:49:48.192Z,1.17
2023-10-28T18:52:15.245Z,1.20
2023-10-28T18:54:42.112Z,1.25
2023-10-28T18:57:09.037Z,1.48
2023-10-28T18:59:35.695Z,1.90
2023-10-28T19:02:02.233Z,2.88
2023-10-28T19:04:28.718Z,1.60
2023-10-28T19:06:55.909Z,1.98
2023-10-28T19:09:22.337Z,1.75
2023-10-28T19:11:48.896Z,1.70
2023-10-28T19:14:15.576Z,1.38
2023-10-28T19:16:42.009Z,1.83
2023-10-28T19:19:10.182Z,1.40
2023-10-28T19:21:37.175Z,2.13
2023-10-28T19:24:03.954Z,1.35
2023-10-28T19:26:30.592Z,2.45
2023-10-28T19:28:57.051Z,1.50
2023-10-28T19:31:28.221Z,1.80
2023-10-28T19:33:54.754Z,1.48
2023-10-28T19:36:21.254Z,1.20
2023-10-28T19:38:47.759Z,1.10
2023-10-28T19:41:14.215Z,1.23
2023-10-28T19:43:40.654Z,1.45
2023-10-28T19:46:07.704Z,1.10
2023-10-28T19:48:34.472Z,1.50
2023-10-28T19:51:02.191Z,1.23
2023-10-28T19:53:28.801Z,1.77
2023-10-28T19:55:58.587Z,1.38
2023-10-28T19:58:25.626Z,1.65
2023-10-28T20:00:52.536Z,0.90
2023-10-28T20:03:19.091Z,0.85
2023-10-28T20:05:45.681Z,1.48
2023-10-28T20:08:12.663Z,1.10
2023-10-28T20:10:39.325Z,1.45
2023-10-28T20:13:06.139Z,1.35
2023-10-28T20:15:33.027Z,1.75
2023-10-28T20:18:01.132Z,1.10
2023-10-28T20:20:28.116Z,1.05
2023-10-28T20:22:59.170Z,2.10
2023-10-28T20:25:26.480Z,1.10
2023-10-28T20:27:55.447Z,1.67
2023-10-28T20:30:21.888Z,1.33
2023-10-28T20:32:48.430Z,1.35
2023-10-28T20:35:18.165Z,1.38
2023-10-28T20:37:44.870Z,1.35
2023-10-28T20:40:11.595Z,1.05
2023-10-28T20:42:38.340Z,1.30
2023-10-28T20:45:05.262Z,1.52
2023-10-28T20:47:33.057Z,1.30
2023-10-28T20:49:59.728Z,1.13
2023-10-28T20:52:27.794Z,0.98
2023-10-28T20:54:54.414Z,0.80
2023-10-28T20:57:20.861Z,1.35
2023-10-28T20:59:47.415Z,1.05
2023-10-28T21:02:16.641Z,1.08
2023-10-28T21:04:43.764Z,0.73
2023-10-28T21:07:10.392Z,0.95
2023-10-28T21:09:36.887Z,2.17
2023-10-28T21:12:06.752Z,1.45
2023-10-28T21:14:33.255Z,1.13
2023-10-28T21:16:59.781Z,1.40
2023-10-28T21:19:26.803Z,1.60
2023-10-28T21:21:55.951Z,2.08
2023-10-28T21:24:23.017Z,2.75
2023-10-28T21:26:49.868Z,1.60
2023-10-28T21:29:16.467Z,1.92
2023-10-28T21:31:42.978Z,2.25
2023-10-28T21:34:09.418Z,2.00
2023-10-28T21:36:35.942Z,2.58
2023-10-28T21:39:02.421Z,1.45
2023-10-28T21:41:28.872Z,1.52
2023-10-28T21:43:55.304Z,2.35
2023-10-28T21:46:21.831Z,1.52
2023-10-28T21:48:48.266Z,2.35
2023-10-28T21:51:15.012Z,0.95
2023-10-28T21:53:41.520Z,2.25
2023-10-28T21:56:08.312Z,0.88
2023-10-28T21:58:37.822Z,0.88
2023-10-28T22:01:04.493Z,1.50
2023-10-28T22:03:31.823Z,1.48
2023-10-28T22:05:58.376Z,1.67
2023-10-28T22:08:24.838Z,1.08
2023-10-28T22:10:51.385Z,1.10
2023-10-28T22:13:17.960Z,0.98
2023-10-28T22:15:44.522Z,0.80
2023-10-28T22:18:14.971Z,1.30
2023-10-28T22:20:42.890Z,0.75
2023-10-28T22:23:12.360Z,1.00
2023-10-28T22:25:39.887Z,1.02
2023-10-28T22:28:14.737Z,0.70
2023-10-28T22:30:42.942Z,0.88
2023-10-28T22:33:09.446Z,0.73
2023-10-28T22:35:36.059Z,0.65
2023-10-28T22:38:02.538Z,1.00
2023-10-28T22:40:29.209Z,1.35
2023-10-28T22:42:55.656Z,1.00
2023-10-28T22:45:25.784Z,1.10
2023-10-28T22:47:52.961Z,0.68
2023-10-28T22:50:19.490Z,1.00
2023-10-28T22:52:45.934Z,0.90
2023-10-28T22:55:12.355Z,1.10
2023-10-28T22:57:39.924Z,0.65
2023-10-28T23:00:10.196Z,0.90
2023-10-28T23:02:39.956Z,1.00
2023-10-28T23:05:07.162Z,0.88
2023-10-28T23:07:33.625Z,0.80
2023-10-28T23:10:00.162Z,0.68
2023-10-28T23:12:26.973Z,0.80
2023-10-28T23:14:53.870Z,1.13
2023-10-28T23:17:20.441Z,0.77
2023-10-28T23:19:48.821Z,0.68
2023-10-28T23:22:16.446Z,0.68
2023-10-28T23:24:42.970Z,0.80
2023-10-28T23:27:09.547Z,0.60
2023-10-28T23:29:37.365Z,1.25
2023-10-28T23:32:04.556Z,0.68
2023-10-28T23:34:30.999Z,0.57
2023-10-28T23:36:57.425Z,0.65
2023-10-28T23:39:23.919Z,1.00
2023-10-28T23:41:50.675Z,0.68
2023-10-28T23:44:17.238Z,0.50
2023-10-28T23:46:44.447Z,0.50
2023-10-28T23:49:10.901Z,0.63
2023-10-28T23:51:38.061Z,1.52
2023-10-28T23:54:05.124Z,0.95
2023-10-28T23:56:31.688Z,0.85
2023-10-28T23:58:58.226Z,0.80
